createdAt,value
2022-12-19T00:01:34.814Z,20.57
2022-12-19T00:04:07.037Z,22.60
2022-12-19T00:06:36.415Z,20.43
2022-12-19T00:09:06.636Z,20.87
2022-12-19T00:11:35.223Z,22.33
2022-12-19T00:14:03.334Z,21.80
2022-12-19T00:16:32.119Z,20.97
2022-12-19T00:19:01.892Z,22.07
2022-12-19T00:21:34.008Z,22.77
2022-12-19T00:24:05.192Z,21.13
2022-12-19T00:26:47.580Z,21.20
2022-12-19T00:29:16.319Z,20.97
2022-12-19T00:31:46.695Z,21.53
2022-12-19T00:34:16.001Z,22.60
2022-12-19T00:36:44.511Z,21.23
2022-12-19T00:39:12.936Z,20.57
2022-12-19T00:41:42.595Z,20.80
2022-12-19T00:44:18.009Z,21.20
2022-12-19T00:46:50.252Z,22.80
2022-12-19T00:49:21.540Z,19.90
2022-12-19T00:51:49.737Z,21.60
2022-12-19T00:54:17.835Z,23.37
2022-12-19T00:56:46.383Z,21.17
2022-12-19T00:59:17.130Z,21.47
2022-12-19T01:01:53.011Z,22.27
2022-12-19T01:04:29.441Z,22.00
2022-12-19T01:07:02.388Z,21.87
2022-12-19T01:09:33.635Z,21.83
2022-12-19T01:12:19.306Z,21.20
2022-12-19T01:14:50.509Z,20.80
2022-12-19T01:17:18.571Z,20.33
2022-12-19T01:19:46.723Z,21.90
2022-12-19T01:22:15.061Z,22.10
2022-12-19T01:24:43.504Z,22.13
2022-12-19T01:27:11.612Z,21.40
2022-12-19T01:29:52.212Z,21.00
2022-12-19T01:32:23.369Z,20.67
2022-12-19T01:34:52.739Z,20.67
2022-12-19T01:37:21.511Z,23.17
2022-12-19T01:39:49.654Z,21.53
2022-12-19T01:42:23.237Z,21.00
2022-12-19T01:45:24.238Z,20.70
2022-12-19T01:48:01.363Z,19.90
2022-12-19T01:50:35.832Z,20.83
2022-12-19T01:53:05.123Z,21.80
2022-12-19T01:55:34.892Z,21.27
2022-12-19T01:58:03.354Z,20.47
2022-12-19T02:00:32.026Z,20.77
2022-12-19T02:03:10.670Z,20.30
2022-12-19T02:05:45.864Z,22.17
2022-12-19T02:08:15.322Z,21.03
2022-12-19T02:10:43.814Z,21.80
2022-12-19T02:13:13.157Z,20.20
2022-12-19T02:15:51.879Z,21.00
2022-12-19T02:18:30.718Z,22.13
2022-12-19T02:21:30.830Z,20.90
2022-12-19T02:24:32.065Z,20.90
2022-12-19T02:27:16.105Z,20.50
2022-12-19T02:30:10.526Z,21.73
2022-12-19T02:33:01.586Z,21.60
2022-12-19T02:35:37.479Z,20.13
2022-12-19T02:38:13.820Z,21.47
2022-12-19T02:40:48.577Z,20.70
2022-12-19T02:43:26.665Z,19.70
2022-12-19T02:45:55.853Z,21.97
2022-12-19T02:48:25.745Z,22.33
2022-12-19T02:50:53.981Z,19.57
2022-12-19T02:53:23.428Z,20.57
2022-12-19T02:56:18.308Z,21.17
2022-12-19T02:58:56.686Z,22.03
2022-12-19T03:01:36.280Z,20.97
2022-12-19T03:04:16.124Z,22.60
2022-12-19T03:06:51.365Z,21.60
2022-12-19T03:09:31.284Z,20.17
2022-12-19T03:12:14.236Z,19.27
2022-12-19T03:14:47.125Z,20.23
2022-12-19T03:17:15.814Z,20.33
2022-12-19T03:19:48.030Z,19.87
2022-12-19T03:22:18.260Z,21.10
2022-12-19T03:24:46.388Z,21.30
2022-12-19T03:27:20.028Z,20.17
2022-12-19T03:29:54.518Z,20.43
2022-12-19T03:32:24.928Z,20.50
2022-12-19T03:35:00.677Z,19.70
2022-12-19T03:37:32.881Z,19.87
2022-12-19T03:40:03.570Z,18.07
2022-12-19T03:42:51.914Z,20.13
2022-12-19T03:45:30.444Z,19.87
2022-12-19T03:48:01.946Z,18.60
2022-12-19T03:50:39.103Z,19.50
2022-12-19T03:53:16.602Z,19.70
2022-12-19T03:55:50.609Z,20.20
2022-12-19T03:58:25.750Z,19.57
2022-12-19T04:00:55.324Z,19.97
2022-12-19T04:03:24.647Z,19.87
2022-12-19T04:05:56.398Z,20.10
2022-12-19T04:08:25.864Z,19.47
2022-12-19T04:11:00.310Z,18.20
2022-12-19T04:13:34.613Z,18.20
2022-12-19T04:16:12.387Z,18.70
2022-12-19T04:18:42.576Z,18.80
2022-12-19T04:21:16.330Z,19.37
2022-12-19T04:23:48.976Z,18.40
2022-12-19T04:26:19.457Z,20.23
2022-12-19T04:28:51.385Z,21.37
2022-12-19T04:31:21.112Z,19.80
2022-12-19T04:33:49.285Z,18.63
2022-12-19T04:36:18.968Z,19.37
2022-12-19T04:38:47.088Z,20.40
2022-12-19T04:41:15.340Z,19.80
2022-12-19T04:43:43.540Z,19.53
2022-12-19T04:46:11.762Z,19.87
2022-12-19T04:48:40.015Z,19.00
2022-12-19T04:51:11.191Z,20.07
2022-12-19T04:53:40.662Z,19.53
2022-12-19T04:56:31.057Z,20.37
2022-12-19T04:59:05.644Z,24.10
2022-12-19T05:01:41.278Z,50.97
2022-12-19T05:04:09.498Z,54.13
2022-12-19T05:06:41.467Z,57.73
2022-12-19T05:09:12.870Z,45.17
2022-12-19T05:11:44.841Z,34.40
2022-12-19T05:14:13.275Z,28.60
2022-12-19T05:16:46.900Z,24.57
2022-12-19T05:19:20.483Z,22.23
2022-12-19T05:21:51.213Z,20.60
2022-12-19T05:24:31.533Z,19.13
2022-12-19T05:27:14.711Z,20.53
2022-12-19T05:29:49.740Z,20.00
2022-12-19T05:32:25.857Z,19.67
2022-12-19T05:34:54.183Z,19.37
2022-12-19T05:37:25.342Z,19.30
2022-12-19T05:39:57.981Z,18.70
2022-12-19T05:42:32.959Z,18.23
2022-12-19T05:45:04.162Z,17.47
2022-12-19T05:47:34.388Z,19.10
2022-12-19T05:50:05.772Z,19.27
2022-12-19T05:52:37.475Z,19.40
2022-12-19T05:55:15.551Z,19.20
2022-12-19T05:57:45.780Z,18.97
2022-12-19T06:00:15.933Z,18.97
2022-12-19T06:02:47.782Z,17.57
2022-12-19T06:05:20.584Z,19.00
2022-12-19T06:07:54.468Z,18.57
2022-12-19T06:10:32.665Z,17.70
2022-12-19T06:13:13.033Z,18.90
2022-12-19T06:15:44.553Z,17.07
2022-12-19T06:18:16.404Z,35.77
2022-12-19T06:21:02.569Z,38.93
2022-12-19T06:23:49.678Z,28.43
2022-12-19T06:26:26.567Z,22.90
2022-12-19T06:28:56.859Z,21.00
2022-12-19T06:31:34.588Z,17.70
2022-12-19T06:34:05.743Z,20.20
2022-12-19T06:36:37.177Z,18.00
2022-12-19T06:39:25.949Z,18.07
2022-12-19T06:42:13.040Z,17.90
2022-12-19T06:44:46.565Z,16.90
2022-12-19T06:47:29.146Z,16.90
2022-12-19T06:49:57.403Z,16.40
2022-12-19T06:52:25.829Z,17.67
2022-12-19T06:54:54.104Z,17.00
2022-12-19T06:57:23.619Z,37.10
2022-12-19T06:59:51.741Z,39.90
2022-12-19T07:02:27.625Z,29.70
2022-12-19T07:05:00.671Z,24.73
2022-12-19T07:07:29.721Z,20.93
2022-12-19T07:09:57.934Z,19.00
2022-12-19T07:12:27.573Z,17.80
2022-12-19T07:14:55.713Z,16.33
2022-12-19T07:17:25.468Z,17.50
2022-12-19T07:19:56.823Z,17.00
2022-12-19T07:22:27.944Z,17.37
2022-12-19T07:24:57.123Z,16.77
2022-12-19T07:27:29.702Z,39.60
2022-12-19T07:30:03.574Z,73.33
2022-12-19T07:32:32.718Z,44.07
2022-12-19T07:35:01.043Z,32.80
2022-12-19T07:37:29.139Z,26.53
2022-12-19T07:39:57.433Z,21.80
2022-12-19T07:42:29.418Z,18.03
2022-12-19T07:45:01.438Z,18.20
2022-12-19T07:47:31.058Z,15.50
2022-12-19T07:49:59.232Z,15.70
2022-12-19T07:52:27.470Z,14.43
2022-12-19T07:54:55.852Z,15.00
2022-12-19T07:57:24.131Z,14.97
2022-12-19T07:59:52.568Z,14.50
2022-12-19T08:02:20.722Z,14.10
2022-12-19T08:04:50.828Z,14.40
2022-12-19T08:07:19.305Z,13.50
2022-12-19T08:09:47.600Z,13.60
2022-12-19T08:12:17.671Z,14.83
2022-12-19T08:14:45.942Z,14.87
2022-12-19T08:17:21.717Z,14.33
2022-12-19T08:19:51.686Z,36.80
2022-12-19T08:22:20.008Z,45.37
2022-12-19T08:24:48.187Z,39.70
2022-12-19T08:27:17.869Z,30.07
2022-12-19T08:29:47.483Z,21.90
2022-12-19T08:32:20.950Z,17.90
2022-12-19T08:34:51.959Z,18.30
2022-12-19T08:37:20.313Z,15.07
2022-12-19T08:39:48.544Z,14.50
2022-12-19T08:42:16.907Z,14.40
2022-12-19T08:44:45.168Z,14.27
2022-12-19T08:47:13.781Z,13.47
2022-12-19T08:49:42.235Z,13.47
2022-12-19T08:52:11.711Z,11.80
2022-12-19T08:54:40.009Z,12.20
2022-12-19T08:57:08.157Z,11.77
2022-12-19T08:59:36.382Z,13.73
2022-12-19T09:02:06.154Z,13.60
2022-12-19T09:05:57.510Z,12.60
2022-12-19T09:07:24.762Z,13.67
2022-12-19T09:09:53.393Z,12.43
2022-12-19T09:12:21.929Z,13.10
2022-12-19T09:14:50.191Z,13.80
2022-12-19T09:17:18.330Z,12.67
2022-12-19T09:19:47.756Z,12.47
2022-12-19T09:22:17.195Z,12.63
2022-12-19T09:24:47.037Z,13.13
2022-12-19T09:27:15.233Z,14.13
2022-12-19T09:29:44.081Z,14.10
2022-12-19T09:32:12.704Z,13.10
2022-12-19T09:34:40.901Z,12.80
2022-12-19T09:37:17.046Z,12.77
2022-12-19T09:39:47.644Z,13.17
2022-12-19T09:42:48.303Z,12.83
2022-12-19T09:45:31.340Z,12.37
2022-12-19T09:48:01.635Z,12.40
2022-12-19T09:50:43.601Z,13.60
2022-12-19T09:53:20.366Z,13.60
2022-12-19T09:55:53.789Z,13.10
2022-12-19T09:58:32.475Z,11.87
2022-12-19T10:01:07.518Z,12.00
2022-12-19T10:03:40.312Z,12.77
2022-12-19T10:07:10.917Z,13.20
2022-12-19T10:10:45.887Z,13.30
2022-12-19T10:12:41.242Z,12.80
2022-12-19T10:15:08.419Z,12.17
2022-12-19T10:17:55.885Z,10.77
2022-12-19T10:20:29.351Z,13.20
2022-12-19T10:23:13.810Z,12.80
2022-12-19T10:25:52.514Z,11.73
2022-12-19T10:28:35.635Z,12.63
2022-12-19T10:31:20.941Z,13.00
2022-12-19T10:33:57.060Z,12.80
2022-12-19T10:36:48.801Z,12.20
2022-12-19T10:39:20.168Z,10.83
2022-12-19T10:41:55.759Z,12.20
2022-12-19T10:44:29.410Z,12.50
2022-12-19T10:46:57.719Z,13.23
2022-12-19T10:49:27.624Z,12.43
2022-12-19T10:52:00.384Z,12.40
2022-12-19T10:54:43.654Z,12.43
2022-12-19T10:57:25.465Z,10.70
2022-12-19T11:00:00.266Z,12.67
2022-12-19T11:02:35.856Z,11.73
2022-12-19T11:05:06.847Z,11.80
2022-12-19T11:07:35.298Z,10.97
2022-12-19T11:10:46.953Z,12.03
2022-12-19T11:17:12.480Z,11.27
2022-12-19T11:21:33.184Z,10.77
2022-12-19T11:26:22.958Z,12.10
2022-12-19T11:29:32.310Z,10.90
2022-12-19T11:30:43.753Z,10.80
2022-12-19T11:30:48.667Z,11.10
2022-12-19T11:33:17.387Z,11.30
2022-12-19T11:35:51.395Z,12.13
2022-12-19T11:38:26.953Z,13.43
2022-12-19T11:40:58.505Z,13.67
2022-12-19T11:43:47.070Z,12.90
2022-12-19T11:46:31.361Z,11.87
2022-12-19T11:49:05.580Z,13.20
2022-12-19T11:51:41.067Z,13.27
2022-12-19T11:54:17.585Z,13.20
2022-12-19T11:56:46.186Z,13.30
2022-12-19T11:59:18.980Z,13.30
2022-12-19T12:01:59.338Z,12.43
2022-12-19T12:04:54.609Z,13.07
2022-12-19T12:08:09.886Z,13.37
2022-12-19T12:14:55.903Z,13.60
2022-12-19T12:20:12.798Z,13.03
2022-12-19T12:30:39.084Z,14.47
2022-12-19T12:31:06.435Z,31.03
2022-12-19T12:31:16.921Z,39.37
2022-12-19T12:31:43.410Z,18.40
2022-12-19T12:32:05.067Z,23.33
2022-12-19T12:35:56.482Z,13.60
2022-12-19T12:40:58.230Z,13.93
2022-12-19T12:43:41.991Z,13.67
2022-12-19T12:46:16.650Z,13.30
2022-12-19T12:48:50.625Z,13.10
2022-12-19T12:51:19.648Z,27.47
2022-12-19T12:53:50.867Z,33.87
2022-12-19T12:56:20.331Z,28.10
2022-12-19T12:59:07.686Z,20.03
2022-12-19T13:01:38.654Z,18.17
2022-12-19T13:04:20.891Z,16.10
2022-12-19T13:07:15.508Z,14.13
2022-12-19T13:09:45.631Z,13.23
2022-12-19T13:12:40.077Z,12.63
2022-12-19T13:15:44.780Z,11.53
2022-12-19T13:18:32.529Z,13.07
2022-12-19T13:21:02.825Z,11.80
2022-12-19T13:23:50.691Z,11.90
2022-12-19T13:26:39.696Z,11.87
2022-12-19T13:29:30.970Z,12.47
2022-12-19T13:32:13.916Z,11.90
2022-12-19T13:34:57.562Z,13.10
2022-12-19T13:39:57.818Z,12.27
2022-12-19T13:40:35.355Z,14.27
2022-12-19T13:43:33.834Z,12.03
2022-12-19T13:46:03.861Z,12.03
2022-12-19T13:48:38.665Z,12.13
2022-12-19T13:51:12.499Z,11.10
2022-12-19T13:53:42.003Z,13.00
2022-12-19T13:56:15.131Z,11.50
2022-12-19T13:58:50.348Z,11.63
2022-12-19T14:01:26.862Z,11.07
2022-12-19T14:04:07.636Z,11.30
2022-12-19T14:06:43.040Z,12.10
2022-12-19T14:11:30.492Z,10.60
2022-12-19T14:13:45.140Z,11.77
2022-12-19T14:15:33.760Z,10.53
2022-12-19T14:18:29.944Z,11.97
2022-12-19T14:22:05.976Z,10.60
2022-12-19T14:24:16.534Z,10.43
2022-12-19T14:28:20.124Z,9.80
2022-12-19T14:30:28.858Z,11.07
2022-12-19T14:33:44.432Z,11.63
2022-12-19T14:36:06.822Z,11.90
2022-12-19T14:39:26.417Z,9.63
2022-12-19T14:41:08.734Z,10.13
2022-12-19T14:44:00.311Z,10.83
2022-12-19T14:54:01.974Z,9.93
2022-12-19T14:54:09.038Z,11.20
2022-12-19T14:54:31.032Z,10.30
2022-12-19T14:56:13.131Z,10.50
2022-12-19T14:58:52.515Z,9.57
2022-12-19T15:01:24.779Z,9.30
2022-12-19T15:04:47.279Z,11.17
2022-12-19T15:07:07.695Z,8.97
2022-12-19T15:11:03.268Z,8.37
2022-12-19T15:14:20.927Z,9.30
2022-12-19T15:15:46.097Z,8.70
2022-12-19T15:18:24.341Z,10.50
2022-12-19T15:20:54.153Z,23.70
2022-12-19T15:23:24.419Z,43.00
2022-12-19T15:26:09.167Z,30.73
2022-12-19T15:28:42.357Z,20.87
2022-12-19T15:31:29.941Z,15.40
2022-12-19T15:36:47.461Z,12.10
2022-12-19T15:39:17.277Z,10.13
2022-12-19T15:41:47.898Z,11.23
2022-12-19T15:44:22.089Z,9.10
2022-12-19T15:46:50.613Z,10.30
2022-12-19T15:49:20.687Z,8.63
2022-12-19T15:51:51.813Z,8.97
2022-12-19T15:54:47.839Z,8.80
2022-12-19T15:57:22.906Z,8.80
2022-12-19T15:59:51.547Z,8.53
2022-12-19T16:02:23.612Z,9.13
2022-12-19T16:04:56.939Z,8.13
2022-12-19T16:07:30.903Z,9.23
2022-12-19T16:10:00.586Z,7.90
2022-12-19T16:12:36.754Z,7.40
2022-12-19T16:15:05.772Z,8.57
2022-12-19T16:17:34.467Z,8.03
2022-12-19T16:20:02.640Z,8.63
2022-12-19T16:22:30.920Z,8.30
2022-12-19T16:25:00.564Z,8.63
2022-12-19T16:27:30.555Z,8.50
2022-12-19T16:30:03.919Z,41.17
2022-12-19T16:32:32.229Z,31.60
2022-12-19T16:35:00.547Z,20.20
2022-12-19T16:37:32.175Z,16.10
2022-12-19T16:40:02.212Z,12.50
2022-12-19T16:42:31.310Z,10.83
2022-12-19T16:44:59.641Z,8.87
2022-12-19T16:47:28.029Z,10.23
2022-12-19T16:49:56.273Z,8.80
2022-12-19T16:52:24.832Z,8.40
2022-12-19T16:54:55.336Z,7.43
2022-12-19T16:57:24.971Z,8.63
2022-12-19T16:59:53.251Z,7.27
2022-12-19T17:02:49.538Z,7.63
2022-12-19T17:05:21.058Z,7.77
2022-12-19T17:07:50.191Z,7.20
2022-12-19T17:10:25.638Z,7.20
2022-12-19T17:12:56.927Z,22.70
2022-12-19T17:15:29.662Z,31.50
2022-12-19T17:18:00.249Z,22.03
2022-12-19T17:20:33.289Z,18.17
2022-12-19T17:23:01.560Z,13.40
2022-12-19T17:25:29.835Z,11.03
2022-12-19T17:27:59.390Z,10.50
2022-12-19T17:30:27.669Z,10.10
2022-12-19T17:32:56.553Z,8.70
2022-12-19T17:35:28.809Z,7.77
2022-12-19T17:37:58.083Z,8.20
2022-12-19T17:40:28.316Z,7.93
2022-12-19T17:42:57.038Z,7.63
2022-12-19T17:45:28.674Z,6.53
2022-12-19T17:48:02.900Z,6.37
2022-12-19T17:50:35.650Z,6.60
2022-12-19T17:53:03.847Z,6.13
2022-12-19T17:55:32.552Z,6.20
2022-12-19T17:58:00.790Z,6.03
2022-12-19T18:00:33.369Z,6.07
2022-12-19T18:03:04.959Z,6.27
2022-12-19T18:05:35.963Z,6.73
2022-12-19T18:08:05.155Z,7.10
2022-12-19T18:10:33.837Z,26.57
2022-12-19T18:13:02.109Z,46.43
2022-12-19T18:15:31.787Z,50.50
2022-12-19T18:18:00.003Z,61.00
2022-12-19T18:20:32.175Z,45.20
2022-12-19T18:23:02.116Z,35.80
2022-12-19T18:25:32.032Z,28.50
2022-12-19T18:28:00.659Z,23.53
2022-12-19T18:30:29.090Z,17.93
2022-12-19T18:33:01.429Z,14.50
2022-12-19T18:35:33.743Z,12.17
2022-12-19T18:38:03.200Z,11.50
2022-12-19T18:40:32.122Z,11.00
2022-12-19T18:43:00.766Z,9.43
2022-12-19T18:45:36.150Z,8.60
2022-12-19T18:48:08.970Z,7.83
2022-12-19T18:50:37.166Z,7.50
2022-12-19T18:53:11.971Z,17.47
2022-12-19T18:55:40.624Z,31.13
2022-12-19T18:58:08.977Z,24.53
2022-12-19T19:00:40.034Z,20.83
2022-12-19T19:03:16.735Z,18.30
2022-12-19T19:05:46.404Z,16.50
2022-12-19T19:08:18.669Z,12.90
2022-12-19T19:10:53.859Z,11.50
2022-12-19T19:13:24.057Z,9.40
2022-12-19T19:15:54.629Z,10.13
2022-12-19T19:18:29.819Z,7.97
2022-12-19T19:21:01.260Z,7.57
2022-12-19T19:23:36.135Z,6.47
2022-12-19T19:26:04.789Z,6.60
2022-12-19T19:28:33.139Z,5.77
2022-12-19T19:31:02.447Z,6.30
2022-12-19T19:33:35.979Z,6.37
2022-12-19T19:36:11.962Z,5.50
2022-12-19T19:38:42.359Z,5.70
2022-12-19T19:41:10.876Z,5.40
2022-12-19T19:43:39.722Z,4.80
2022-12-19T19:46:08.297Z,5.57
2022-12-19T19:48:37.980Z,5.63
2022-12-19T19:51:06.614Z,4.70
2022-12-19T19:53:36.029Z,5.10
2022-12-19T19:56:05.250Z,5.13
2022-12-19T19:58:33.597Z,6.70
2022-12-19T20:01:01.822Z,5.63
2022-12-19T20:03:32.115Z,5.90
2022-12-19T20:06:03.067Z,6.60
2022-12-19T20:08:39.619Z,6.30
2022-12-19T20:11:08.880Z,5.53
2022-12-19T20:13:37.678Z,5.13
2022-12-19T20:16:07.822Z,5.70
2022-12-19T20:18:36.903Z,5.57
2022-12-19T20:21:12.516Z,4.53
2022-12-19T20:23:43.178Z,5.30
2022-12-19T20:26:12.370Z,4.90
2022-12-19T20:28:48.382Z,3.73
2022-12-19T20:31:17.680Z,4.40
2022-12-19T20:33:46.349Z,4.30
2022-12-19T20:36:16.578Z,4.33
2022-12-19T20:38:44.896Z,4.50
2022-12-19T20:41:13.434Z,4.40
2022-12-19T20:43:42.527Z,4.17
2022-12-19T20:46:12.414Z,4.30
2022-12-19T20:48:41.102Z,3.37
2022-12-19T20:51:16.577Z,3.73
2022-12-19T20:53:48.769Z,3.33
2022-12-19T20:56:19.446Z,2.87
2022-12-19T20:58:49.689Z,3.40
2022-12-19T21:01:19.840Z,3.03
2022-12-19T21:03:51.443Z,3.10
2022-12-19T21:06:27.165Z,3.27
2022-12-19T21:08:58.937Z,2.50
2022-12-19T21:11:28.014Z,2.90
2022-12-19T21:13:56.134Z,2.50
2022-12-19T21:16:24.687Z,2.53
2022-12-19T21:18:53.004Z,2.30
2022-12-19T21:21:24.046Z,2.70
2022-12-19T21:23:53.458Z,2.83
2022-12-19T21:26:24.015Z,3.17
2022-12-19T21:28:52.694Z,2.80
2022-12-19T21:31:25.027Z,2.60
2022-12-19T21:33:55.434Z,3.97
2022-12-19T21:36:25.587Z,4.10
2022-12-19T21:38:55.951Z,4.00
2022-12-19T21:41:25.879Z,4.03
2022-12-19T21:43:55.751Z,4.73
2022-12-19T21:46:27.236Z,4.30
2022-12-19T21:48:56.838Z,3.70
2022-12-19T21:51:27.066Z,3.13
2022-12-19T21:53:56.419Z,2.90
2022-12-19T21:56:29.044Z,3.07
2022-12-19T21:58:59.109Z,3.27
2022-12-19T22:01:28.056Z,3.00
2022-12-19T22:04:00.016Z,2.47
2022-12-19T22:06:31.784Z,2.30
2022-12-19T22:09:00.659Z,2.73
2022-12-19T22:11:31.696Z,2.73
2022-12-19T22:14:01.424Z,2.50
2022-12-19T22:16:30.245Z,2.67
2022-12-19T22:18:58.501Z,2.73
2022-12-19T22:21:27.181Z,3.23
2022-12-19T22:23:58.339Z,3.37
2022-12-19T22:26:27.908Z,3.20
2022-12-19T22:28:58.360Z,4.60
2022-12-19T22:31:28.916Z,4.27
2022-12-19T22:33:59.554Z,5.33
2022-12-19T22:36:29.316Z,4.93
2022-12-19T22:38:58.618Z,4.73
2022-12-19T22:41:27.052Z,5.17
2022-12-19T22:43:57.376Z,5.53
2022-12-19T22:46:27.493Z,5.10
2022-12-19T22:48:57.950Z,4.70
2022-12-19T22:51:27.507Z,4.90
2022-12-19T22:53:56.012Z,4.10
2022-12-19T22:56:25.862Z,4.20
2022-12-19T22:58:57.648Z,4.10
2022-12-19T23:01:27.448Z,2.87
2022-12-19T23:03:58.133Z,3.13
2022-12-19T23:06:28.589Z,2.60
2022-12-19T23:08:56.960Z,2.10
2022-12-19T23:11:28.948Z,2.23
2022-12-19T23:13:58.636Z,2.07
2022-12-19T23:16:26.879Z,1.60
2022-12-19T23:18:55.619Z,1.80
2022-12-19T23:21:25.702Z,2.20
2022-12-19T23:23:55.956Z,1.43
2022-12-19T23:26:26.334Z,2.07
2022-12-19T23:28:56.545Z,1.50
2022-12-19T23:31:27.447Z,2.00
2022-12-19T23:33:56.918Z,1.43
2022-12-19T23:37:00.413Z,1.57
2022-12-19T23:39:14.602Z,1.67
2022-12-19T23:41:43.224Z,1.60
2022-12-19T23:44:12.075Z,1.50
2022-12-19T23:46:41.522Z,1.47
2022-12-19T23:49:09.697Z,1.63
2022-12-19T23:51:37.831Z,1.53
2022-12-19T23:54:06.115Z,1.10
2022-12-19T23:56:34.436Z,1.20
2022-12-19T23:59:03.358Z,1.27
